sensor_id;sensor_type;location;lat;lon;timestamp;pressure;altitude;pressure_sealevel;temperature
69420;BMP280;56612;52.030;113.524;2023-01-16T00:01:00;92634.81;;;-19.54
69420;BMP280;56612;52.030;113.524;2023-01-16T00:04:04;92618.28;;;-19.64
69420;BMP280;56612;52.030;113.524;2023-01-16T00:07:08;92631.63;;;-19.49
69420;BMP280;56612;52.030;113.524;2023-01-16T00:10:12;92644.19;;;-19.40
69420;BMP280;56612;52.030;113.524;2023-01-16T00:13:16;92646.25;;;-19.38
69420;BMP280;56612;52.030;113.524;2023-01-16T00:16:20;92636.38;;;-19.30
69420;BMP280;56612;52.030;113.524;2023-01-16T00:19:24;92641.75;;;-19.23
69420;BMP280;56612;52.030;113.524;2023-01-16T00:22:28;92646.19;;;-19.18
69420;BMP280;56612;52.030;113.524;2023-01-16T00:25:31;92646.41;;;-19.21
69420;BMP280;56612;52.030;113.524;2023-01-16T00:28:35;92654.53;;;-19.11
69420;BMP280;56612;52.030;113.524;2023-01-16T00:31:42;92652.66;;;-19.17
69420;BMP280;56612;52.030;113.524;2023-01-16T00:34:45;92661.72;;;-19.10
69420;BMP280;56612;52.030;113.524;2023-01-16T00:37:48;92665.53;;;-19.00
69420;BMP280;56612;52.030;113.524;2023-01-16T00:40:53;92675.94;;;-18.98
69420;BMP280;56612;52.030;113.524;2023-01-16T00:43:57;92661.81;;;-18.93
69420;BMP280;56612;52.030;113.524;2023-01-16T00:47:02;92674.69;;;-18.76
69420;BMP280;56612;52.030;113.524;2023-01-16T00:50:06;92666.16;;;-18.68
69420;BMP280;56612;52.030;113.524;2023-01-16T00:53:10;92655.81;;;-18.53
69420;BMP280;56612;52.030;113.524;2023-01-16T00:56:14;92657.00;;;-18.42
69420;BMP280;56612;52.030;113.524;2023-01-16T00:59:18;92646.44;;;-18.24
69420;BMP280;56612;52.030;113.524;2023-01-16T01:02:22;92647.88;;;-18.01
69420;BMP280;56612;52.030;113.524;2023-01-16T01:05:26;92645.84;;;-17.74
69420;BMP280;56612;52.030;113.524;2023-01-16T01:08:29;92652.34;;;-17.45
69420;BMP280;56612;52.030;113.524;2023-01-16T01:11:33;92649.81;;;-17.22
69420;BMP280;56612;52.030;113.524;2023-01-16T01:14:36;92650.69;;;-16.97
69420;BMP280;56612;52.030;113.524;2023-01-16T01:17:39;92660.16;;;-16.81
69420;BMP280;56612;52.030;113.524;2023-01-16T01:20:42;92652.94;;;-16.71
69420;BMP280;56612;52.030;113.524;2023-01-16T01:23:45;92653.34;;;-16.50
69420;BMP280;56612;52.030;113.524;2023-01-16T01:26:49;92650.75;;;-16.28
69420;BMP280;56612;52.030;113.524;2023-01-16T01:29:52;92654.13;;;-16.09
69420;BMP280;56612;52.030;113.524;2023-01-16T01:32:56;92653.09;;;-15.89
69420;BMP280;56612;52.030;113.524;2023-01-16T01:36:00;92644.81;;;-15.65
69420;BMP280;56612;52.030;113.524;2023-01-16T01:39:03;92661.19;;;-15.43
69420;BMP280;56612;52.030;113.524;2023-01-16T01:42:10;92662.00;;;-15.29
69420;BMP280;56612;52.030;113.524;2023-01-16T01:45:33;92654.56;;;-15.03
69420;BMP280;56612;52.030;113.524;2023-01-16T01:48:40;92647.13;;;-15.06
69420;BMP280;56612;52.030;113.524;2023-01-16T01:51:45;92643.72;;;-14.90
69420;BMP280;56612;52.030;113.524;2023-01-16T01:54:55;92648.81;;;-14.66
69420;BMP280;56612;52.030;113.524;2023-01-16T01:58:03;92646.94;;;-14.65
69420;BMP280;56612;52.030;113.524;2023-01-16T02:01:07;92655.66;;;-14.74
69420;BMP280;56612;52.030;113.524;2023-01-16T02:04:16;92656.50;;;-14.66
69420;BMP280;56612;52.030;113.524;2023-01-16T02:07:21;92650.44;;;-14.63
69420;BMP280;56612;52.030;113.524;2023-01-16T02:14:30;92660.00;;;-14.63
69420;BMP280;56612;52.030;113.524;2023-01-16T02:17:34;92663.28;;;-14.44
69420;BMP280;56612;52.030;113.524;2023-01-16T02:24:45;92667.25;;;-14.24
69420;BMP280;56612;52.030;113.524;2023-01-16T02:28:10;92661.00;;;-14.28
69420;BMP280;56612;52.030;113.524;2023-01-16T02:31:55;92664.97;;;-14.27
69420;BMP280;56612;52.030;113.524;2023-01-16T02:35:15;92672.72;;;-14.33
69420;BMP280;56612;52.030;113.524;2023-01-16T02:41:57;92683.31;;;-14.23
69420;BMP280;56612;52.030;113.524;2023-01-16T02:48:38;92678.84;;;-14.42
69420;BMP280;56612;52.030;113.524;2023-01-16T02:55:12;92684.94;;;-14.01
69420;BMP280;56612;52.030;113.524;2023-01-16T02:58:18;92673.69;;;-14.17
69420;BMP280;56612;52.030;113.524;2023-01-16T03:01:21;92683.75;;;-14.19
69420;BMP280;56612;52.030;113.524;2023-01-16T03:04:42;92680.47;;;-14.20
69420;BMP280;56612;52.030;113.524;2023-01-16T03:08:07;92687.50;;;-14.01
69420;BMP280;56612;52.030;113.524;2023-01-16T03:11:18;92678.84;;;-13.98
69420;BMP280;56612;52.030;113.524;2023-01-16T03:17:54;92685.13;;;-13.99
69420;BMP280;56612;52.030;113.524;2023-01-16T03:21:30;92689.16;;;-13.85
69420;BMP280;56612;52.030;113.524;2023-01-16T03:38:17;92688.81;;;-13.76
69420;BMP280;56612;52.030;113.524;2023-01-16T03:41:24;92692.13;;;-13.81
69420;BMP280;56612;52.030;113.524;2023-01-16T03:44:37;92693.91;;;-13.57
69420;BMP280;56612;52.030;113.524;2023-01-16T03:47:49;92688.13;;;-13.12
69420;BMP280;56612;52.030;113.524;2023-01-16T03:50:58;92682.00;;;-12.56
69420;BMP280;56612;52.030;113.524;2023-01-16T03:58:05;92684.25;;;-11.92
69420;BMP280;56612;52.030;113.524;2023-01-16T04:04:12;92692.09;;;-11.42
69420;BMP280;56612;52.030;113.524;2023-01-16T04:07:24;92697.81;;;-11.15
69420;BMP280;56612;52.030;113.524;2023-01-16T04:10:35;92699.16;;;-10.93
69420;BMP280;56612;52.030;113.524;2023-01-16T04:13:41;92695.97;;;-10.78
69420;BMP280;56612;52.030;113.524;2023-01-16T04:16:46;92692.06;;;-10.72
69420;BMP280;56612;52.030;113.524;2023-01-16T04:19:50;92696.59;;;-10.57
69420;BMP280;56612;52.030;113.524;2023-01-16T04:22:55;92696.81;;;-10.76
69420;BMP280;56612;52.030;113.524;2023-01-16T04:26:01;92702.78;;;-10.60
69420;BMP280;56612;52.030;113.524;2023-01-16T04:29:04;92707.16;;;-10.47
69420;BMP280;56612;52.030;113.524;2023-01-16T04:32:07;92703.22;;;-10.41
69420;BMP280;56612;52.030;113.524;2023-01-16T04:35:11;92706.44;;;-10.48
69420;BMP280;56612;52.030;113.524;2023-01-16T04:38:14;92708.38;;;-10.33
69420;BMP280;56612;52.030;113.524;2023-01-16T04:41:18;92704.84;;;-10.22
69420;BMP280;56612;52.030;113.524;2023-01-16T04:44:41;92698.78;;;-10.25
69420;BMP280;56612;52.030;113.524;2023-01-16T04:47:47;92698.13;;;-10.18
69420;BMP280;56612;52.030;113.524;2023-01-16T04:50:54;92695.44;;;-9.97
69420;BMP280;56612;52.030;113.524;2023-01-16T04:53:58;92698.75;;;-9.73
69420;BMP280;56612;52.030;113.524;2023-01-16T04:57:02;92700.28;;;-9.70
69420;BMP280;56612;52.030;113.524;2023-01-16T05:00:08;92692.94;;;-9.51
69420;BMP280;56612;52.030;113.524;2023-01-16T05:03:19;92704.31;;;-9.46
69420;BMP280;56612;52.030;113.524;2023-01-16T05:06:26;92701.03;;;-9.47
69420;BMP280;56612;52.030;113.524;2023-01-16T05:09:29;92703.44;;;-9.34
69420;BMP280;56612;52.030;113.524;2023-01-16T05:12:33;92706.56;;;-9.35
69420;BMP280;56612;52.030;113.524;2023-01-16T05:15:36;92715.34;;;-9.15
69420;BMP280;56612;52.030;113.524;2023-01-16T05:18:43;92701.72;;;-9.31
69420;BMP280;56612;52.030;113.524;2023-01-16T05:21:46;92707.03;;;-9.52
69420;BMP280;56612;52.030;113.524;2023-01-16T05:24:50;92695.97;;;-9.91
69420;BMP280;56612;52.030;113.524;2023-01-16T05:27:53;92711.44;;;-9.98
69420;BMP280;56612;52.030;113.524;2023-01-16T05:30:56;92707.19;;;-9.73
69420;BMP280;56612;52.030;113.524;2023-01-16T05:34:00;92703.34;;;-10.10
69420;BMP280;56612;52.030;113.524;2023-01-16T05:37:03;92695.94;;;-9.98
69420;BMP280;56612;52.030;113.524;2023-01-16T05:40:06;92707.19;;;-9.80
69420;BMP280;56612;52.030;113.524;2023-01-16T05:43:10;92703.44;;;-9.64
69420;BMP280;56612;52.030;113.524;2023-01-16T05:46:14;92715.75;;;-10.01
69420;BMP280;56612;52.030;113.524;2023-01-16T05:49:18;92691.03;;;-10.25
69420;BMP280;56612;52.030;113.524;2023-01-16T05:52:21;92695.91;;;-10.06
69420;BMP280;56612;52.030;113.524;2023-01-16T05:55:25;92694.41;;;-10.01
69420;BMP280;56612;52.030;113.524;2023-01-16T05:58:28;92704.09;;;-9.87
69420;BMP280;56612;52.030;113.524;2023-01-16T06:01:31;92700.50;;;-10.27
69420;BMP280;56612;52.030;113.524;2023-01-16T06:04:36;92698.25;;;-10.31
69420;BMP280;56612;52.030;113.524;2023-01-16T06:07:39;92704.13;;;-10.30
69420;BMP280;56612;52.030;113.524;2023-01-16T06:10:44;92701.78;;;-10.13
69420;BMP280;56612;52.030;113.524;2023-01-16T06:13:47;92708.78;;;-9.16
69420;BMP280;56612;52.030;113.524;2023-01-16T06:16:51;92722.97;;;-7.91
69420;BMP280;56612;52.030;113.524;2023-01-16T06:19:54;92717.59;;;-7.60
69420;BMP280;56612;52.030;113.524;2023-01-16T06:23:00;92720.94;;;-7.42
69420;BMP280;56612;52.030;113.524;2023-01-16T06:26:04;92709.94;;;-7.83
69420;BMP280;56612;52.030;113.524;2023-01-16T06:29:13;92726.75;;;-6.57
69420;BMP280;56612;52.030;113.524;2023-01-16T06:32:16;92730.91;;;-4.90
69420;BMP280;56612;52.030;113.524;2023-01-16T06:35:19;92721.78;;;-5.74
69420;BMP280;56612;52.030;113.524;2023-01-16T06:38:23;92730.09;;;-6.99
69420;BMP280;56612;52.030;113.524;2023-01-16T06:41:27;92738.38;;;-6.76
69420;BMP280;56612;52.030;113.524;2023-01-16T06:44:33;92736.03;;;-5.39
69420;BMP280;56612;52.030;113.524;2023-01-16T06:47:37;92738.63;;;-6.20
69420;BMP280;56612;52.030;113.524;2023-01-16T06:50:41;92735.56;;;-7.30
69420;BMP280;56612;52.030;113.524;2023-01-16T06:53:44;92740.88;;;-8.18
69420;BMP280;56612;52.030;113.524;2023-01-16T06:56:47;92745.81;;;-8.52
69420;BMP280;56612;52.030;113.524;2023-01-16T06:59:51;92740.13;;;-8.59
69420;BMP280;56612;52.030;113.524;2023-01-16T07:02:55;92746.41;;;-8.92
69420;BMP280;56612;52.030;113.524;2023-01-16T07:05:59;92754.78;;;-9.53
69420;BMP280;56612;52.030;113.524;2023-01-16T07:09:02;92768.66;;;-8.74
69420;BMP280;56612;52.030;113.524;2023-01-16T07:12:06;92772.16;;;-9.76
69420;BMP280;56612;52.030;113.524;2023-01-16T07:15:10;92774.44;;;-9.65
69420;BMP280;56612;52.030;113.524;2023-01-16T07:18:32;92773.19;;;-10.16
69420;BMP280;56612;52.030;113.524;2023-01-16T07:21:58;92783.75;;;-10.06
69420;BMP280;56612;52.030;113.524;2023-01-16T07:25:29;92788.63;;;-7.56
69420;BMP280;56612;52.030;113.524;2023-01-16T07:28:36;92792.81;;;-7.60
69420;BMP280;56612;52.030;113.524;2023-01-16T07:31:40;92797.91;;;-7.45
69420;BMP280;56612;52.030;113.524;2023-01-16T07:34:44;92794.63;;;-7.78
69420;BMP280;56612;52.030;113.524;2023-01-16T07:37:48;92808.28;;;-9.40
69420;BMP280;56612;52.030;113.524;2023-01-16T07:40:53;92806.50;;;-9.61
69420;BMP280;56612;52.030;113.524;2023-01-16T07:43:56;92802.44;;;-9.33
69420;BMP280;56612;52.030;113.524;2023-01-16T07:47:00;92803.56;;;-10.09
69420;BMP280;56612;52.030;113.524;2023-01-16T07:50:04;92805.19;;;-10.76
69420;BMP280;56612;52.030;113.524;2023-01-16T07:53:07;92838.69;;;-11.25
69420;BMP280;56612;52.030;113.524;2023-01-16T07:56:10;92820.84;;;-11.37
69420;BMP280;56612;52.030;113.524;2023-01-16T07:59:14;92823.56;;;-11.42
69420;BMP280;56612;52.030;113.524;2023-01-16T08:02:17;92829.09;;;-11.51
69420;BMP280;56612;52.030;113.524;2023-01-16T08:05:20;92830.31;;;-11.52
69420;BMP280;56612;52.030;113.524;2023-01-16T08:08:24;92823.13;;;-11.94
69420;BMP280;56612;52.030;113.524;2023-01-16T08:11:31;92828.28;;;-12.20
69420;BMP280;56612;52.030;113.524;2023-01-16T08:14:49;92835.53;;;-12.19
69420;BMP280;56612;52.030;113.524;2023-01-16T08:17:52;92837.84;;;-12.60
69420;BMP280;56612;52.030;113.524;2023-01-16T08:20:55;92835.47;;;-12.58
69420;BMP280;56612;52.030;113.524;2023-01-16T08:24:00;92834.66;;;-12.67
69420;BMP280;56612;52.030;113.524;2023-01-16T08:27:04;92842.16;;;-12.69
69420;BMP280;56612;52.030;113.524;2023-01-16T08:30:09;92845.56;;;-12.60
69420;BMP280;56612;52.030;113.524;2023-01-16T08:33:13;92843.06;;;-12.53
69420;BMP280;56612;52.030;113.524;2023-01-16T08:36:16;92857.41;;;-12.71
69420;BMP280;56612;52.030;113.524;2023-01-16T08:39:23;92853.03;;;-12.76
69420;BMP280;56612;52.030;113.524;2023-01-16T08:42:28;92857.94;;;-12.91
69420;BMP280;56612;52.030;113.524;2023-01-16T08:45:51;92860.41;;;-12.85
69420;BMP280;56612;52.030;113.524;2023-01-16T08:49:13;92861.00;;;-12.93
69420;BMP280;56612;52.030;113.524;2023-01-16T08:52:35;92863.56;;;-12.93
69420;BMP280;56612;52.030;113.524;2023-01-16T08:55:40;92867.03;;;-12.90
69420;BMP280;56612;52.030;113.524;2023-01-16T08:58:43;92869.34;;;-13.05
69420;BMP280;56612;52.030;113.524;2023-01-16T09:01:47;92856.84;;;-13.15
69420;BMP280;56612;52.030;113.524;2023-01-16T09:04:51;92864.84;;;-13.18
69420;BMP280;56612;52.030;113.524;2023-01-16T09:07:54;92857.81;;;-13.18
69420;BMP280;56612;52.030;113.524;2023-01-16T09:11:12;92866.66;;;-13.32
69420;BMP280;56612;52.030;113.524;2023-01-16T09:14:33;92862.25;;;-13.37
69420;BMP280;56612;52.030;113.524;2023-01-16T09:17:36;92861.72;;;-13.30
69420;BMP280;56612;52.030;113.524;2023-01-16T09:20:40;92863.22;;;-13.40
69420;BMP280;56612;52.030;113.524;2023-01-16T09:23:45;92867.72;;;-13.46
69420;BMP280;56612;52.030;113.524;2023-01-16T09:26:51;92874.59;;;-13.54
69420;BMP280;56612;52.030;113.524;2023-01-16T09:29:55;92880.97;;;-13.61
69420;BMP280;56612;52.030;113.524;2023-01-16T09:32:58;92882.16;;;-13.62
69420;BMP280;56612;52.030;113.524;2023-01-16T09:36:02;92893.09;;;-13.56
69420;BMP280;56612;52.030;113.524;2023-01-16T09:39:06;92892.28;;;-13.70
69420;BMP280;56612;52.030;113.524;2023-01-16T09:42:36;92886.03;;;-13.74
69420;BMP280;56612;52.030;113.524;2023-01-16T09:46:14;92895.41;;;-13.77
69420;BMP280;56612;52.030;113.524;2023-01-16T09:49:47;92894.44;;;-13.74
69420;BMP280;56612;52.030;113.524;2023-01-16T09:52:57;92898.81;;;-13.69
69420;BMP280;56612;52.030;113.524;2023-01-16T09:56:22;92900.41;;;-13.90
69420;BMP280;56612;52.030;113.524;2023-01-16T09:59:51;92900.50;;;-13.96
69420;BMP280;56612;52.030;113.524;2023-01-16T10:02:55;92910.53;;;-13.98
69420;BMP280;56612;52.030;113.524;2023-01-16T10:09:30;92919.94;;;-14.06
69420;BMP280;56612;52.030;113.524;2023-01-16T10:12:37;92914.34;;;-14.10
69420;BMP280;56612;52.030;113.524;2023-01-16T10:23:07;92929.53;;;-14.12
69420;BMP280;56612;52.030;113.524;2023-01-16T10:29:39;92930.69;;;-14.38
69420;BMP280;56612;52.030;113.524;2023-01-16T10:36:04;92937.28;;;-14.48
69420;BMP280;56612;52.030;113.524;2023-01-16T10:39:11;92942.47;;;-14.59
69420;BMP280;56612;52.030;113.524;2023-01-16T10:42:21;92945.47;;;-14.55
69420;BMP280;56612;52.030;113.524;2023-01-16T10:45:45;92946.84;;;-14.54
69420;BMP280;56612;52.030;113.524;2023-01-16T10:49:12;92952.47;;;-14.55
69420;BMP280;56612;52.030;113.524;2023-01-16T10:52:31;92945.44;;;-14.49
69420;BMP280;56612;52.030;113.524;2023-01-16T10:55:38;92954.41;;;-14.31
69420;BMP280;56612;52.030;113.524;2023-01-16T10:58:43;92960.16;;;-14.20
69420;BMP280;56612;52.030;113.524;2023-01-16T11:01:47;92952.69;;;-14.18
69420;BMP280;56612;52.030;113.524;2023-01-16T11:04:52;92954.66;;;-14.35
69420;BMP280;56612;52.030;113.524;2023-01-16T11:08:22;92963.25;;;-14.27
69420;BMP280;56612;52.030;113.524;2023-01-16T11:11:27;92973.75;;;-14.30
69420;BMP280;56612;52.030;113.524;2023-01-16T11:14:50;92972.38;;;-14.31
69420;BMP280;56612;52.030;113.524;2023-01-16T11:18:38;92980.28;;;-14.29
69420;BMP280;56612;52.030;113.524;2023-01-16T11:21:43;92978.94;;;-14.36
69420;BMP280;56612;52.030;113.524;2023-01-16T11:24:47;92975.47;;;-14.39
69420;BMP280;56612;52.030;113.524;2023-01-16T11:27:52;92986.69;;;-14.47
69420;BMP280;56612;52.030;113.524;2023-01-16T11:34:13;92994.03;;;-14.68
69420;BMP280;56612;52.030;113.524;2023-01-16T11:37:18;92993.13;;;-14.71
69420;BMP280;56612;52.030;113.524;2023-01-16T11:40:24;92995.78;;;-14.93
69420;BMP280;56612;52.030;113.524;2023-01-16T11:43:30;93003.00;;;-14.97
69420;BMP280;56612;52.030;113.524;2023-01-16T11:46:57;92999.97;;;-14.96
69420;BMP280;56612;52.030;113.524;2023-01-16T11:50:26;93010.44;;;-14.94
69420;BMP280;56612;52.030;113.524;2023-01-16T11:53:33;92999.75;;;-14.98
69420;BMP280;56612;52.030;113.524;2023-01-16T12:21:01;93006.53;;;-15.17
69420;BMP280;56612;52.030;113.524;2023-01-16T12:24:17;93018.44;;;-15.20
69420;BMP280;56612;52.030;113.524;2023-01-16T12:27:43;93024.03;;;-15.16
69420;BMP280;56612;52.030;113.524;2023-01-16T12:38:14;93031.44;;;-15.06
69420;BMP280;56612;52.030;113.524;2023-01-16T12:41:21;93019.81;;;-15.07
69420;BMP280;56612;52.030;113.524;2023-01-16T12:52:10;93021.69;;;-15.14
69420;BMP280;56612;52.030;113.524;2023-01-16T12:55:28;93026.56;;;-15.04
69420;BMP280;56612;52.030;113.524;2023-01-16T12:58:53;93029.59;;;-15.12
69420;BMP280;56612;52.030;113.524;2023-01-16T13:02:18;93029.34;;;-15.14
69420;BMP280;56612;52.030;113.524;2023-01-16T13:05:33;93034.97;;;-15.10
69420;BMP280;56612;52.030;113.524;2023-01-16T13:08:43;93029.84;;;-15.15
69420;BMP280;56612;52.030;113.524;2023-01-16T13:12:24;93045.22;;;-15.10
69420;BMP280;56612;52.030;113.524;2023-01-16T13:15:50;93043.13;;;-15.17
69420;BMP280;56612;52.030;113.524;2023-01-16T13:22:30;93035.00;;;-15.38
69420;BMP280;56612;52.030;113.524;2023-01-16T13:25:43;93031.31;;;-15.42
69420;BMP280;56612;52.030;113.524;2023-01-16T13:42:15;93040.84;;;-15.71
69420;BMP280;56612;52.030;113.524;2023-01-16T13:45:33;93033.38;;;-15.69
69420;BMP280;56612;52.030;113.524;2023-01-16T13:48:54;93040.88;;;-15.65
69420;BMP280;56612;52.030;113.524;2023-01-16T13:52:02;93030.41;;;-15.73
69420;BMP280;56612;52.030;113.524;2023-01-16T13:55:30;93030.38;;;-15.78
69420;BMP280;56612;52.030;113.524;2023-01-16T13:58:32;93028.28;;;-15.80
69420;BMP280;56612;52.030;113.524;2023-01-16T14:05:24;93039.94;;;-15.73
69420;BMP280;56612;52.030;113.524;2023-01-16T14:12:27;93023.16;;;-16.02
69420;BMP280;56612;52.030;113.524;2023-01-16T14:15:49;93043.41;;;-15.88
69420;BMP280;56612;52.030;113.524;2023-01-16T14:22:23;93023.38;;;-16.12
69420;BMP280;56612;52.030;113.524;2023-01-16T14:25:29;93033.38;;;-16.08
69420;BMP280;56612;52.030;113.524;2023-01-16T14:28:33;93048.28;;;-16.07
69420;BMP280;56612;52.030;113.524;2023-01-16T14:31:44;93044.28;;;-16.19
69420;BMP280;56612;52.030;113.524;2023-01-16T14:38:02;93040.56;;;-16.23
69420;BMP280;56612;52.030;113.524;2023-01-16T14:41:15;93044.94;;;-16.30
69420;BMP280;56612;52.030;113.524;2023-01-16T14:48:32;93044.22;;;-16.52
69420;BMP280;56612;52.030;113.524;2023-01-16T14:51:59;93051.19;;;-16.53
69420;BMP280;56612;52.030;113.524;2023-01-16T14:55:22;93053.03;;;-16.54
69420;BMP280;56612;52.030;113.524;2023-01-16T14:58:39;93043.94;;;-16.60
69420;BMP280;56612;52.030;113.524;2023-01-16T15:01:50;93047.38;;;-16.74
69420;BMP280;56612;52.030;113.524;2023-01-16T15:05:21;93044.81;;;-16.80
69420;BMP280;56612;52.030;113.524;2023-01-16T15:08:32;93040.16;;;-16.76
69420;BMP280;56612;52.030;113.524;2023-01-16T15:11:47;93043.88;;;-16.77
69420;BMP280;56612;52.030;113.524;2023-01-16T15:14:58;93042.00;;;-16.82
69420;BMP280;56612;52.030;113.524;2023-01-16T15:18:02;93051.50;;;-16.83
69420;BMP280;56612;52.030;113.524;2023-01-16T15:21:24;93054.53;;;-16.84
69420;BMP280;56612;52.030;113.524;2023-01-16T15:25:07;93059.91;;;-16.77
69420;BMP280;56612;52.030;113.524;2023-01-16T15:28:43;93057.59;;;-16.80
69420;BMP280;56612;52.030;113.524;2023-01-16T15:32:03;93054.75;;;-16.82
69420;BMP280;56612;52.030;113.524;2023-01-16T15:35:16;93067.81;;;-16.74
69420;BMP280;56612;52.030;113.524;2023-01-16T15:38:19;93059.50;;;-16.69
69420;BMP280;56612;52.030;113.524;2023-01-16T15:41:26;93056.44;;;-16.73
69420;BMP280;56612;52.030;113.524;2023-01-16T15:44:51;93045.75;;;-16.72
69420;BMP280;56612;52.030;113.524;2023-01-16T15:48:30;93053.69;;;-16.70
69420;BMP280;56612;52.030;113.524;2023-01-16T15:51:38;93048.78;;;-16.73
69420;BMP280;56612;52.030;113.524;2023-01-16T15:54:42;93046.69;;;-16.75
69420;BMP280;56612;52.030;113.524;2023-01-16T15:57:54;93049.84;;;-16.91
69420;BMP280;56612;52.030;113.524;2023-01-16T16:01:02;93051.94;;;-16.95
69420;BMP280;56612;52.030;113.524;2023-01-16T16:04:06;93050.94;;;-17.04
69420;BMP280;56612;52.030;113.524;2023-01-16T16:07:11;93040.94;;;-17.07
69420;BMP280;56612;52.030;113.524;2023-01-16T16:10:14;93044.69;;;-17.03
69420;BMP280;56612;52.030;113.524;2023-01-16T16:13:38;93051.69;;;-16.97
69420;BMP280;56612;52.030;113.524;2023-01-16T16:16:59;93049.09;;;-17.03
69420;BMP280;56612;52.030;113.524;2023-01-16T16:20:34;93053.75;;;-17.02
69420;BMP280;56612;52.030;113.524;2023-01-16T16:23:39;93053.50;;;-17.04
69420;BMP280;56612;52.030;113.524;2023-01-16T16:26:44;93050.72;;;-17.06
69420;BMP280;56612;52.030;113.524;2023-01-16T16:29:52;93052.56;;;-17.06
69420;BMP280;56612;52.030;113.524;2023-01-16T16:32:56;93053.50;;;-17.04
69420;BMP280;56612;52.030;113.524;2023-01-16T16:36:00;93052.81;;;-17.04
69420;BMP280;56612;52.030;113.524;2023-01-16T16:45:37;93056.47;;;-17.16
69420;BMP280;56612;52.030;113.524;2023-01-16T16:48:40;93055.97;;;-17.20
69420;BMP280;56612;52.030;113.524;2023-01-16T16:51:44;93054.84;;;-17.14
69420;BMP280;56612;52.030;113.524;2023-01-16T16:54:56;93054.84;;;-17.14
69420;BMP280;56612;52.030;113.524;2023-01-16T16:58:06;93056.44;;;-17.22
69420;BMP280;56612;52.030;113.524;2023-01-16T17:01:17;93057.56;;;-17.23
69420;BMP280;56612;52.030;113.524;2023-01-16T17:04:21;93048.03;;;-17.28
69420;BMP280;56612;52.030;113.524;2023-01-16T17:07:25;93057.53;;;-17.29
69420;BMP280;56612;52.030;113.524;2023-01-16T17:10:28;93051.28;;;-17.28
69420;BMP280;56612;52.030;113.524;2023-01-16T17:13:33;93062.41;;;-17.31
69420;BMP280;56612;52.030;113.524;2023-01-16T17:16:37;93064.50;;;-17.29
69420;BMP280;56612;52.030;113.524;2023-01-16T17:19:41;93057.78;;;-17.32
69420;BMP280;56612;52.030;113.524;2023-01-16T17:22:45;93064.72;;;-17.27
69420;BMP280;56612;52.030;113.524;2023-01-16T17:25:50;93051.69;;;-17.35
69420;BMP280;56612;52.030;113.524;2023-01-16T17:28:53;93062.53;;;-17.45
69420;BMP280;56612;52.030;113.524;2023-01-16T17:31:57;93051.38;;;-17.48
69420;BMP280;56612;52.030;113.524;2023-01-16T17:35:16;93057.63;;;-17.49
69420;BMP280;56612;52.030;113.524;2023-01-16T17:38:19;93051.09;;;-17.56
69420;BMP280;56612;52.030;113.524;2023-01-16T17:41:25;93053.81;;;-17.65
69420;BMP280;56612;52.030;113.524;2023-01-16T17:44:34;93050.56;;;-17.65
69420;BMP280;56612;52.030;113.524;2023-01-16T17:47:57;93046.81;;;-17.70
69420;BMP280;56612;52.030;113.524;2023-01-16T17:51:00;93052.56;;;-17.75
69420;BMP280;56612;52.030;113.524;2023-01-16T17:54:03;93048.56;;;-17.82
69420;BMP280;56612;52.030;113.524;2023-01-16T17:57:07;93047.88;;;-17.82
69420;BMP280;56612;52.030;113.524;2023-01-16T18:00:11;93039.28;;;-17.85
69420;BMP280;56612;52.030;113.524;2023-01-16T18:03:15;93028.28;;;-17.97
69420;BMP280;56612;52.030;113.524;2023-01-16T18:06:18;93033.66;;;-17.89
69420;BMP280;56612;52.030;113.524;2023-01-16T18:09:21;93032.75;;;-17.91
69420;BMP280;56612;52.030;113.524;2023-01-16T18:12:24;93028.06;;;-17.93
69420;BMP280;56612;52.030;113.524;2023-01-16T18:15:45;93033.56;;;-18.06
69420;BMP280;56612;52.030;113.524;2023-01-16T18:19:23;93050.97;;;-17.99
69420;BMP280;56612;52.030;113.524;2023-01-16T18:22:28;93051.22;;;-17.97
69420;BMP280;56612;52.030;113.524;2023-01-16T18:25:33;93050.78;;;-17.95
69420;BMP280;56612;52.030;113.524;2023-01-16T18:28:36;93050.59;;;-17.91
69420;BMP280;56612;52.030;113.524;2023-01-16T18:31:40;93057.84;;;-17.84
69420;BMP280;56612;52.030;113.524;2023-01-16T18:35:05;93053.91;;;-17.85
69420;BMP280;56612;52.030;113.524;2023-01-16T18:38:09;93048.06;;;-17.86
69420;BMP280;56612;52.030;113.524;2023-01-16T18:41:32;93053.84;;;-17.91
69420;BMP280;56612;52.030;113.524;2023-01-16T18:44:54;93051.66;;;-17.98
69420;BMP280;56612;52.030;113.524;2023-01-16T18:48:16;93063.25;;;-17.97
69420;BMP280;56612;52.030;113.524;2023-01-16T18:51:37;93051.22;;;-17.97
69420;BMP280;56612;52.030;113.524;2023-01-16T18:54:58;93064.94;;;-17.94
69420;BMP280;56612;52.030;113.524;2023-01-16T18:58:20;93059.56;;;-17.96
69420;BMP280;56612;52.030;113.524;2023-01-16T19:01:41;93051.66;;;-17.98
69420;BMP280;56612;52.030;113.524;2023-01-16T19:05:04;93067.72;;;-17.92
69420;BMP280;56612;52.030;113.524;2023-01-16T19:08:07;93066.09;;;-17.95
69420;BMP280;56612;52.030;113.524;2023-01-16T19:11:18;93067.88;;;-18.01
69420;BMP280;56612;52.030;113.524;2023-01-16T19:14:24;93063.69;;;-18.04
69420;BMP280;56612;52.030;113.524;2023-01-16T19:17:29;93063.47;;;-18.01
69420;BMP280;56612;52.030;113.524;2023-01-16T19:20:32;93061.16;;;-17.99
69420;BMP280;56612;52.030;113.524;2023-01-16T19:23:35;93069.94;;;-18.05
69420;BMP280;56612;52.030;113.524;2023-01-16T19:26:39;93064.56;;;-18.07
69420;BMP280;56612;52.030;113.524;2023-01-16T19:29:45;93066.16;;;-18.10
69420;BMP280;56612;52.030;113.524;2023-01-16T19:32:48;93054.78;;;-18.14
69420;BMP280;56612;52.030;113.524;2023-01-16T19:35:53;93058.03;;;-18.14
69420;BMP280;56612;52.030;113.524;2023-01-16T19:38:56;93056.63;;;-18.15
69420;BMP280;56612;52.030;113.524;2023-01-16T19:42:00;93055.66;;;-18.17
69420;BMP280;56612;52.030;113.524;2023-01-16T19:45:22;93057.34;;;-18.14
69420;BMP280;56612;52.030;113.524;2023-01-16T19:48:44;93055.16;;;-18.22
69420;BMP280;56612;52.030;113.524;2023-01-16T19:51:48;93055.97;;;-18.30